Terminal Aerodrome Forecast
Issued by NWS

Home | Current Version | Previous Version | Text Only | Print | Product List | Glossary On
Versions: 1 2 3 4 5 6 7 8 9 10 11 12 13 14 15 16 17 18
000
FTUS43 KGRB 280500
TAFAUW
TAF
KAUW 280538Z 2806/2906 21003KT P6SM BKN080 BKN120
     FM281100 18006KT 5SM -SN BR BKN030 OVC070
     FM281400 15006KT 2SM -SN BR OVC015
     FM282200 12005KT 5SM BR OVC010
     FM290400 12005KT 3SM -FZDZ OVC006=

USA.gov is the U.S. government's official web portal to all federal, state and local government web resources and services.